Messwerte Nacogdoches

Temperatur

Temperatur
°C
1579741200 19.00 19.00 8
1579744800 20.00 20.00 8
1579748400 21.00 21.00 8
1579752000 22.00 22.00 8
1579755600 23.00 23.00 8
1579759200 0.00 0.00 9
1579762800 1.00 1.00 9
1579766400 2.00 2.00 9
1579770000 3.00 3.00 9
1579773600 4.00 4.00 9
1579777200 5.00 5.00 9
1579780800 6.00 6.00
1579784400 7.00 7.00 9
1579788000 8.00 8.00 10
1579791600 9.00 9.00 11
1579795200 10.00 10.00 11
1579798800 11.00 11.00 12
1579802400 12.00 12.00 11
1579806000 13.00 13.00 11
1579809600 14.00 14.00 10
1579813200 15.00 15.00 11
1579816800 16.00 16.00 11
1579820400 17.00 17.00
1579824000 18.00 18.00 8

Aktuellste Messwerte

Wettercharakter
Wetter: klar
Temperatur
6 °C
Feuchtigkeit
100 %
Wind
0 km/h, -
Luftdruck
1017 hPa
Messzeit: 23. Januar 2020, 19.00Datenquelle: METAR

Weitere Messstationen in der Nähe

Messstation Temperatur Entfernung
Lufkin 8 °C 39 km
Jacksonville 8 °C 58 km
Longview 8 °C 86 km
Palestine 7 °C 97 km
Jasper 11 °C 100 km
Tyler 10 °C 107 km
Fort Polk 10 °C 120 km

Wind

Windrichtung Böen Mittelwind
° km/h km/h
1579741200 19.00 18.00 - 19.00 140° 20
1579744800 20.00 19.00 - 20.00 150° 15
1579748400 21.00 20.00 - 21.00 130° 15
1579752000 22.00 21.00 - 22.00 130° 15
1579755600 23.00 22.00 - 23.00 110° 15
1579759200 0.00 23.00 - 0.00 110° 10
1579762800 1.00 0.00 - 1.00 120° 15
1579766400 2.00 1.00 - 2.00 110° 10
1579770000 3.00 2.00 - 3.00 340° 10
1579773600 4.00 3.00 - 4.00 60° 5
1579777200 5.00 4.00 - 5.00 50° 5
1579780800 6.00 5.00 - 6.00
1579784400 7.00 6.00 - 7.00 90° 5
1579788000 8.00 7.00 - 8.00 90° 5
1579791600 9.00 8.00 - 9.00 0
1579795200 10.00 9.00 - 10.00 280° 0
1579798800 11.00 10.00 - 11.00 300° 10
1579802400 12.00 11.00 - 12.00 310° 35 25
1579806000 13.00 12.00 - 13.00 330° 35 20
1579809600 14.00 13.00 - 14.00 310° 20
1579813200 15.00 14.00 - 15.00 330° 20
1579816800 16.00 15.00 - 16.00 330° 20
1579820400 17.00 16.00 - 17.00
1579824000 18.00 17.00 - 18.00 330° 10

Ihre Wetterstation

Fehlt Ihre Wetterstation auf unserem Portal?

Schreiben Sie an network@meteonews.ch

Klima

Wann ist es am wärmsten? Wann regnet es am wenigsten? Unsere Klimadaten geben Auskunft.